createdAt,value
2017-06-24T00:00:00.545Z,75.10
2017-06-24T00:02:27.849Z,75.10
2017-06-24T00:04:55.134Z,75.10
2017-06-24T00:07:22.423Z,75.10
2017-06-24T00:09:49.756Z,75.00
2017-06-24T00:12:18.593Z,74.90
2017-06-24T00:14:46.456Z,74.70
2017-06-24T00:17:13.977Z,74.70
2017-06-24T00:19:41.432Z,74.90
2017-06-24T00:22:09.178Z,74.80
2017-06-24T00:24:36.481Z,74.70
2017-06-24T00:27:04.108Z,74.50
2017-06-24T00:29:32.103Z,74.30
2017-06-24T00:31:59.636Z,74.10
2017-06-24T00:34:27.078Z,74.20
2017-06-24T00:36:54.554Z,74.10
2017-06-24T00:39:22.807Z,74.10
2017-06-24T00:41:50.694Z,73.80
2017-06-24T00:44:18.047Z,73.90
2017-06-24T00:46:45.535Z,73.80
2017-06-24T00:49:12.830Z,73.80
2017-06-24T00:51:40.122Z,73.80
2017-06-24T00:54:08.594Z,73.80
2017-06-24T00:56:35.907Z,73.80
2017-06-24T00:59:03.495Z,73.80
2017-06-24T01:01:30.965Z,73.60
2017-06-24T01:03:58.487Z,73.50
2017-06-24T01:06:25.752Z,73.80
2017-06-24T01:08:53.031Z,73.70
2017-06-24T01:11:20.324Z,73.70
2017-06-24T01:13:47.596Z,73.50
2017-06-24T01:16:16.219Z,73.50
2017-06-24T01:18:43.749Z,73.50
2017-06-24T01:21:11.413Z,73.60
2017-06-24T01:23:38.699Z,73.60
2017-06-24T01:26:05.973Z,73.60
2017-06-24T01:28:33.248Z,73.60
2017-06-24T01:31:01.036Z,73.60
2017-06-24T01:33:29.049Z,73.50
2017-06-24T01:35:56.334Z,73.50
2017-06-24T01:38:23.623Z,73.40
2017-06-24T01:40:53.118Z,73.40
2017-06-24T01:43:20.643Z,73.40
2017-06-24T01:45:48.189Z,73.50
2017-06-24T01:48:16.947Z,73.50
2017-06-24T01:50:44.818Z,73.50
2017-06-24T01:53:12.935Z,73.60
2017-06-24T01:55:41.370Z,73.40
2017-06-24T01:58:08.691Z,73.50
2017-06-24T02:00:36.510Z,73.50
2017-06-24T02:03:03.839Z,73.50
2017-06-24T02:05:31.120Z,73.60
2017-06-24T02:07:58.403Z,73.50
2017-06-24T02:10:25.887Z,73.30
2017-06-24T02:12:53.560Z,73.20
2017-06-24T02:15:20.834Z,73.20
2017-06-24T02:17:48.115Z,73.20
2017-06-24T02:20:15.386Z,73.40
2017-06-24T02:25:21.723Z,73.50
2017-06-24T02:27:49.016Z,73.30
2017-06-24T02:30:16.713Z,73.20
2017-06-24T02:32:43.999Z,73.20
2017-06-24T02:35:11.260Z,73.10
2017-06-24T02:37:38.528Z,73.20
2017-06-24T02:40:06.224Z,73.20
2017-06-24T02:42:33.500Z,73.20
2017-06-24T02:45:00.787Z,72.90
2017-06-24T02:47:28.053Z,72.90
2017-06-24T02:49:55.739Z,72.90
2017-06-24T02:52:23.031Z,72.90
2017-06-24T02:54:50.312Z,73.10
2017-06-24T02:57:17.585Z,73.00
2017-06-24T02:59:45.279Z,72.90
2017-06-24T03:02:12.551Z,72.90
2017-06-24T03:04:39.843Z,72.90
2017-06-24T03:07:07.135Z,73.10
2017-06-24T03:09:34.410Z,73.00
2017-06-24T03:12:01.699Z,72.90
2017-06-24T03:14:29.366Z,72.80
2017-06-24T03:16:56.648Z,72.80
2017-06-24T03:19:23.917Z,72.70
2017-06-24T03:21:51.212Z,72.70
2017-06-24T03:24:18.485Z,72.90
2017-06-24T03:26:45.798Z,72.80
2017-06-24T03:29:13.068Z,72.70
2017-06-24T03:31:40.354Z,72.60
2017-06-24T03:34:07.639Z,72.60
2017-06-24T03:36:34.908Z,72.70
2017-06-24T03:39:02.182Z,72.90
2017-06-24T03:41:29.457Z,72.80
2017-06-24T03:43:56.730Z,72.60
2017-06-24T03:46:23.996Z,72.60
2017-06-24T03:48:51.280Z,72.50
2017-06-24T03:51:18.583Z,72.50
2017-06-24T03:53:45.879Z,72.60
2017-06-24T03:56:13.158Z,72.50
2017-06-24T03:58:40.433Z,72.50
2017-06-24T04:01:07.706Z,72.50
2017-06-24T04:03:34.987Z,72.60
2017-06-24T04:06:02.252Z,72.30
2017-06-24T04:08:29.521Z,72.30
2017-06-24T04:10:56.795Z,72.50
2017-06-24T04:13:24.069Z,72.40
2017-06-24T04:15:51.344Z,72.30
2017-06-24T04:18:18.614Z,72.40
2017-06-24T04:20:45.983Z,72.40
2017-06-24T04:23:13.375Z,72.40
2017-06-24T04:25:40.667Z,72.30
2017-06-24T04:28:07.932Z,72.30
2017-06-24T04:30:35.224Z,72.30
2017-06-24T04:33:02.507Z,72.30
2017-06-24T04:35:29.779Z,72.20
2017-06-24T04:37:57.066Z,72.30
2017-06-24T04:40:24.365Z,72.20
2017-06-24T04:42:51.662Z,72.20
2017-06-24T04:45:18.962Z,72.10
2017-06-24T04:47:46.228Z,72.00
2017-06-24T04:50:13.501Z,72.00
2017-06-24T04:52:40.776Z,72.20
2017-06-24T04:55:08.044Z,72.00
2017-06-24T04:57:35.332Z,72.00
2017-06-24T05:00:02.609Z,72.10
2017-06-24T05:02:29.907Z,72.00
2017-06-24T05:04:57.582Z,71.90
2017-06-24T05:07:24.847Z,71.90
2017-06-24T05:09:52.125Z,71.90
2017-06-24T05:12:19.419Z,72.10
2017-06-24T05:14:47.098Z,72.00
2017-06-24T05:17:14.366Z,72.00
2017-06-24T05:19:41.637Z,72.00
2017-06-24T05:22:09.212Z,72.10
2017-06-24T05:24:36.493Z,72.10
2017-06-24T05:27:03.787Z,72.10
2017-06-24T05:29:31.071Z,72.00
2017-06-24T05:31:58.337Z,72.00
2017-06-24T05:34:25.622Z,72.10
2017-06-24T05:36:53.288Z,72.20
2017-06-24T05:39:20.566Z,72.20
2017-06-24T05:41:47.833Z,72.10
2017-06-24T05:44:15.402Z,72.10
2017-06-24T05:46:42.672Z,72.20
2017-06-24T05:49:09.970Z,72.20
2017-06-24T05:51:37.250Z,72.20
2017-06-24T05:54:04.544Z,72.20
2017-06-24T05:56:34.056Z,72.20
2017-06-24T05:59:03.028Z,72.10
2017-06-24T06:01:30.426Z,72.10
2017-06-24T06:03:58.038Z,72.10
2017-06-24T06:06:25.318Z,72.10
2017-06-24T06:08:52.598Z,72.20
2017-06-24T06:11:19.875Z,72.30
2017-06-24T06:13:47.416Z,72.30
2017-06-24T06:16:14.711Z,72.20
2017-06-24T06:18:42.004Z,72.30
2017-06-24T06:21:09.280Z,72.30
2017-06-24T06:23:36.549Z,72.30
2017-06-24T06:26:03.821Z,72.40
2017-06-24T06:28:31.100Z,72.40
2017-06-24T06:30:58.383Z,72.30
2017-06-24T06:33:25.667Z,72.30
2017-06-24T06:35:52.956Z,72.30
2017-06-24T06:38:20.241Z,72.20
2017-06-24T06:40:47.567Z,72.30
2017-06-24T06:43:15.237Z,72.20
2017-06-24T06:45:42.530Z,72.20
2017-06-24T06:48:09.799Z,72.30
2017-06-24T06:50:37.091Z,72.30
2017-06-24T06:53:04.372Z,72.40
2017-06-24T06:55:31.636Z,72.40
2017-06-24T06:57:58.931Z,72.40
2017-06-24T07:00:26.453Z,72.40
2017-06-24T07:02:53.735Z,72.40
2017-06-24T07:05:21.028Z,72.40
2017-06-24T07:07:48.296Z,72.40
2017-06-24T07:10:15.588Z,72.50
2017-06-24T07:12:42.883Z,72.40
2017-06-24T07:15:10.167Z,72.50
2017-06-24T07:20:15.621Z,72.50
2017-06-24T07:22:43.066Z,72.50
2017-06-24T07:25:10.362Z,72.60
2017-06-24T07:27:37.654Z,72.60
2017-06-24T07:30:05.144Z,72.60
2017-06-24T07:32:32.437Z,72.60
2017-06-24T07:34:59.728Z,72.50
2017-06-24T07:37:27.181Z,72.60
2017-06-24T07:39:54.498Z,72.70
2017-06-24T07:42:21.813Z,72.70
2017-06-24T07:44:49.113Z,72.80
2017-06-24T07:47:16.712Z,72.80
2017-06-24T07:49:44.167Z,72.70
2017-06-24T07:52:11.624Z,72.80
2017-06-24T07:54:39.154Z,72.70
2017-06-24T07:57:06.539Z,72.70
2017-06-24T07:59:33.845Z,72.70
2017-06-24T08:02:01.144Z,72.70
2017-06-24T08:04:28.672Z,72.70
2017-06-24T08:06:56.129Z,72.80
2017-06-24T08:09:23.473Z,72.60
2017-06-24T08:11:50.762Z,72.80
2017-06-24T08:14:18.191Z,72.80
2017-06-24T08:16:45.494Z,72.60
2017-06-24T08:19:12.787Z,72.60
2017-06-24T08:21:40.085Z,72.60
2017-06-24T08:24:07.646Z,72.70
2017-06-24T08:26:34.944Z,72.70
2017-06-24T08:29:02.244Z,72.70
2017-06-24T08:31:29.734Z,72.70
2017-06-24T08:33:57.437Z,72.70
2017-06-24T08:36:24.929Z,72.70
2017-06-24T08:38:52.220Z,72.60
2017-06-24T08:41:19.516Z,72.60
2017-06-24T08:43:46.813Z,72.70
2017-06-24T08:46:14.121Z,72.80
2017-06-24T08:48:41.420Z,72.80
2017-06-24T08:51:09.466Z,72.80
2017-06-24T08:53:36.773Z,72.80
2017-06-24T08:56:04.093Z,72.80
2017-06-24T08:58:31.401Z,72.80
2017-06-24T09:00:58.959Z,72.70
2017-06-24T09:03:26.257Z,72.60
2017-06-24T09:05:53.561Z,72.70
2017-06-24T09:08:20.861Z,72.70
2017-06-24T09:10:48.166Z,72.80
2017-06-24T09:13:15.562Z,72.80
2017-06-24T09:15:42.850Z,72.80
2017-06-24T09:18:10.161Z,72.80
2017-06-24T09:20:37.468Z,72.70
2017-06-24T09:23:04.779Z,72.80
2017-06-24T09:25:32.085Z,72.70
2017-06-24T09:27:59.400Z,72.80
2017-06-24T09:30:26.699Z,72.70
2017-06-24T09:32:53.998Z,72.60
2017-06-24T09:35:21.295Z,72.80
2017-06-24T09:37:48.664Z,72.80
2017-06-24T09:40:15.955Z,72.80
2017-06-24T09:42:43.250Z,72.80
2017-06-24T09:45:10.553Z,72.60
2017-06-24T09:47:38.118Z,72.60
2017-06-24T09:50:05.403Z,72.60
2017-06-24T09:52:32.726Z,72.60
2017-06-24T09:54:59.868Z,72.60
2017-06-24T09:57:27.172Z,72.80
2017-06-24T09:59:54.553Z,72.80
2017-06-24T10:02:21.861Z,72.50
2017-06-24T10:04:49.165Z,72.40
2017-06-24T10:07:16.450Z,72.50
2017-06-24T10:09:43.745Z,72.60
2017-06-24T10:12:11.048Z,72.60
2017-06-24T10:14:38.362Z,72.70
2017-06-24T10:17:05.763Z,72.60
2017-06-24T10:19:33.072Z,72.70
2017-06-24T10:22:00.369Z,72.70
2017-06-24T10:24:27.668Z,72.90
2017-06-24T10:26:54.968Z,72.80
2017-06-24T10:29:22.435Z,72.80
2017-06-24T10:31:49.745Z,72.80
2017-06-24T10:34:17.108Z,72.80
2017-06-24T10:36:44.409Z,72.90
2017-06-24T10:39:11.709Z,72.90
2017-06-24T10:41:39.426Z,72.80
2017-06-24T10:44:06.726Z,72.50
2017-06-24T10:46:34.397Z,72.60
2017-06-24T10:49:01.715Z,72.60
2017-06-24T10:51:29.006Z,72.40
2017-06-24T10:53:56.308Z,72.40
2017-06-24T10:56:23.915Z,72.60
2017-06-24T10:58:51.199Z,72.70
2017-06-24T11:01:18.515Z,72.70
2017-06-24T11:03:45.915Z,72.70
2017-06-24T11:06:13.439Z,72.50
2017-06-24T11:08:40.740Z,72.50
2017-06-24T11:11:08.047Z,72.60
2017-06-24T11:13:35.648Z,72.70
2017-06-24T11:16:02.944Z,72.70
2017-06-24T11:18:30.293Z,72.80
2017-06-24T11:20:57.575Z,72.80
2017-06-24T11:23:24.958Z,72.90
2017-06-24T11:25:52.265Z,73.00
2017-06-24T11:28:19.588Z,73.00
2017-06-24T11:30:46.893Z,73.00
2017-06-24T11:33:14.193Z,73.00
2017-06-24T11:35:41.893Z,73.10
2017-06-24T11:38:09.385Z,73.10
2017-06-24T11:40:36.840Z,73.10
2017-06-24T11:43:04.375Z,73.10
2017-06-24T11:45:31.832Z,73.10
2017-06-24T11:47:59.115Z,73.20
2017-06-24T11:50:26.417Z,73.30
2017-06-24T11:52:53.721Z,73.50
2017-06-24T11:55:21.167Z,73.60
2017-06-24T11:57:48.459Z,73.70
2017-06-24T12:00:16.146Z,74.00
2017-06-24T12:02:43.449Z,74.00
2017-06-24T12:05:11.182Z,74.10
2017-06-24T12:07:38.571Z,74.10
2017-06-24T12:10:06.096Z,74.10
2017-06-24T12:12:33.480Z,74.10
2017-06-24T12:15:00.779Z,74.10
2017-06-24T12:17:28.433Z,74.20
2017-06-24T12:19:56.133Z,74.40
2017-06-24T12:22:23.671Z,74.40
2017-06-24T12:24:51.078Z,74.50
2017-06-24T12:27:18.367Z,74.50
2017-06-24T12:29:45.664Z,74.40
2017-06-24T12:32:12.964Z,74.60
2017-06-24T12:34:41.215Z,74.70
2017-06-24T12:37:08.940Z,74.70
2017-06-24T12:39:36.518Z,74.70
2017-06-24T12:42:03.896Z,74.70
2017-06-24T12:44:31.196Z,74.60
2017-06-24T12:46:58.805Z,75.00
2017-06-24T12:49:26.268Z,74.80
2017-06-24T12:51:53.565Z,74.70
2017-06-24T12:54:20.864Z,74.90
2017-06-24T12:56:48.333Z,74.80
2017-06-24T12:59:15.790Z,74.90
2017-06-24T13:01:43.291Z,74.90
2017-06-24T13:04:10.754Z,74.90
2017-06-24T13:06:38.042Z,75.10
2017-06-24T13:09:05.376Z,75.10
2017-06-24T13:11:32.694Z,75.00
2017-06-24T13:14:00.526Z,75.20
2017-06-24T13:16:27.881Z,75.30
2017-06-24T13:18:55.183Z,75.30
2017-06-24T13:21:22.480Z,75.50
2017-06-24T13:23:49.781Z,75.30
2017-06-24T13:26:17.575Z,75.50
2017-06-24T13:28:44.880Z,75.50
2017-06-24T13:31:12.183Z,75.60
2017-06-24T13:33:39.493Z,75.70
2017-06-24T13:36:06.805Z,75.70
2017-06-24T13:38:34.177Z,75.70
2017-06-24T13:41:01.623Z,75.80
2017-06-24T13:43:28.914Z,75.70
2017-06-24T13:45:56.213Z,75.80
2017-06-24T13:48:23.511Z,75.70
2017-06-24T13:50:50.923Z,76.10
2017-06-24T13:53:18.228Z,75.90
2017-06-24T13:55:45.528Z,75.80
2017-06-24T13:58:12.823Z,76.00
2017-06-24T14:00:40.118Z,76.00
2017-06-24T14:03:07.902Z,76.00
2017-06-24T14:05:35.204Z,76.20
2017-06-24T14:08:02.490Z,76.20
2017-06-24T14:10:29.791Z,76.20
2017-06-24T14:12:57.359Z,76.20
2017-06-24T14:15:24.664Z,76.00
2017-06-24T14:17:52.266Z,76.20
2017-06-24T14:20:19.695Z,76.10
2017-06-24T14:22:47.491Z,76.20
2017-06-24T14:25:14.789Z,76.10
2017-06-24T14:27:42.518Z,76.10
2017-06-24T14:30:10.329Z,76.10
2017-06-24T14:32:37.629Z,76.20
2017-06-24T14:35:04.931Z,76.00
2017-06-24T14:37:32.302Z,76.10
2017-06-24T14:39:59.631Z,76.10
2017-06-24T14:42:27.151Z,76.20
2017-06-24T14:44:55.241Z,76.10
2017-06-24T14:47:23.053Z,76.20
2017-06-24T14:49:50.513Z,76.10
2017-06-24T14:52:17.816Z,76.20
2017-06-24T14:54:45.358Z,76.00
2017-06-24T14:57:12.677Z,76.30
2017-06-24T14:59:40.646Z,76.20
2017-06-24T15:02:08.104Z,76.20
2017-06-24T15:04:35.409Z,76.30
2017-06-24T15:07:03.021Z,76.00
2017-06-24T15:09:31.069Z,76.30
2017-06-24T15:11:58.395Z,76.30
2017-06-24T15:14:25.693Z,76.10
2017-06-24T15:16:53.092Z,76.20
2017-06-24T15:19:20.401Z,76.20
2017-06-24T15:21:47.720Z,76.20
2017-06-24T15:24:16.446Z,76.10
2017-06-24T15:26:43.745Z,76.10
2017-06-24T15:29:11.039Z,76.10
2017-06-24T15:31:38.341Z,76.20
2017-06-24T15:34:05.640Z,76.50
2017-06-24T15:36:32.945Z,76.30
2017-06-24T15:39:00.272Z,76.50
2017-06-24T15:41:27.728Z,76.20
2017-06-24T15:43:55.119Z,76.50
2017-06-24T15:46:23.260Z,76.50
2017-06-24T15:48:50.758Z,76.50
2017-06-24T15:51:18.339Z,76.30
2017-06-24T15:53:45.688Z,76.30
2017-06-24T15:56:13.393Z,76.50
2017-06-24T15:58:40.853Z,76.30
2017-06-24T16:01:08.310Z,76.50
2017-06-24T16:03:35.590Z,76.50
2017-06-24T16:06:02.885Z,76.50
2017-06-24T16:08:30.585Z,76.70
2017-06-24T16:10:58.444Z,76.70
2017-06-24T16:13:25.770Z,76.50
2017-06-24T16:15:53.352Z,76.60
2017-06-24T16:18:20.661Z,76.50
2017-06-24T16:20:48.659Z,76.50
2017-06-24T16:23:16.345Z,76.50
2017-06-24T16:25:44.674Z,76.50
2017-06-24T16:28:12.056Z,76.50
2017-06-24T16:30:39.355Z,76.50
2017-06-24T16:33:06.789Z,76.40
2017-06-24T16:35:34.089Z,76.50
2017-06-24T16:38:01.629Z,76.70
2017-06-24T16:40:28.928Z,76.70
2017-06-24T16:42:56.551Z,76.70
2017-06-24T16:45:24.278Z,76.70
2017-06-24T16:47:51.584Z,76.50
2017-06-24T16:50:18.887Z,76.50
2017-06-24T16:52:46.211Z,76.30
2017-06-24T16:55:14.177Z,76.30
2017-06-24T16:57:41.863Z,76.10
2017-06-24T17:00:10.008Z,76.10
2017-06-24T17:05:11.034Z,76.40
2017-06-24T17:07:38.331Z,76.30
2017-06-24T17:10:06.022Z,76.40
2017-06-24T17:12:33.816Z,76.40
2017-06-24T17:15:01.105Z,76.40
2017-06-24T17:17:29.331Z,76.40
2017-06-24T17:19:58.661Z,76.50
2017-06-24T17:22:26.180Z,76.40
2017-06-24T17:24:53.467Z,76.50
2017-06-24T17:27:21.307Z,76.50
2017-06-24T17:29:48.603Z,76.60
2017-06-24T17:32:16.348Z,76.50
2017-06-24T17:34:51.268Z,76.50
2017-06-24T17:37:18.563Z,76.50
2017-06-24T17:39:45.833Z,76.30
2017-06-24T17:42:13.104Z,76.50
2017-06-24T17:44:40.783Z,76.50
2017-06-24T17:47:08.286Z,76.40
2017-06-24T17:49:35.568Z,76.40
2017-06-24T17:52:02.886Z,76.40
2017-06-24T17:54:30.458Z,76.20
2017-06-24T17:56:58.212Z,76.50
2017-06-24T17:59:26.989Z,76.40
2017-06-24T18:01:54.380Z,76.50
2017-06-24T18:04:21.660Z,76.40
2017-06-24T18:06:48.956Z,76.20
2017-06-24T18:09:16.760Z,76.70
2017-06-24T18:11:44.058Z,76.60
2017-06-24T18:14:11.417Z,76.60
2017-06-24T18:16:38.715Z,76.40
2017-06-24T18:19:05.994Z,76.40
2017-06-24T18:21:33.273Z,76.40
2017-06-24T18:24:00.559Z,76.30
2017-06-24T18:26:27.832Z,76.40
2017-06-24T18:28:55.100Z,76.40
2017-06-24T18:31:22.889Z,76.40
2017-06-24T18:33:50.353Z,76.40
2017-06-24T18:36:17.456Z,76.70
2017-06-24T18:38:44.880Z,76.60
2017-06-24T18:41:12.166Z,76.90
2017-06-24T18:43:39.451Z,77.50
2017-06-24T18:46:06.941Z,79.10
2017-06-24T18:48:34.226Z,79.90
2017-06-24T18:51:01.520Z,80.70
2017-06-24T18:53:28.793Z,79.50
2017-06-24T18:55:56.075Z,80.20
2017-06-24T18:58:23.340Z,80.40
2017-06-24T19:00:50.613Z,81.20
2017-06-24T19:03:17.890Z,81.40
2017-06-24T19:05:45.378Z,81.60
2017-06-24T19:08:12.668Z,81.50
2017-06-24T19:10:39.988Z,80.70
2017-06-24T19:13:07.522Z,80.40
2017-06-24T19:15:34.807Z,80.50
2017-06-24T19:18:02.084Z,80.40
2017-06-24T19:20:29.373Z,81.80
2017-06-24T19:22:56.675Z,81.90
2017-06-24T19:25:23.937Z,81.00
2017-06-24T19:27:51.217Z,81.00
2017-06-24T19:30:18.511Z,81.90
2017-06-24T19:32:45.780Z,81.30
2017-06-24T19:35:13.080Z,81.30
2017-06-24T19:37:40.368Z,82.30
2017-06-24T19:40:07.649Z,82.10
2017-06-24T19:42:34.926Z,82.10
2017-06-24T19:45:02.209Z,81.80
2017-06-24T19:47:29.486Z,81.70
2017-06-24T19:49:56.824Z,81.90
2017-06-24T19:52:24.106Z,81.80
2017-06-24T19:54:51.377Z,81.90
2017-06-24T19:57:18.649Z,81.70
2017-06-24T19:59:46.321Z,82.00
2017-06-24T20:02:13.864Z,82.00
2017-06-24T20:04:41.549Z,81.40
2017-06-24T20:07:08.814Z,81.40
2017-06-24T20:09:36.194Z,81.40
2017-06-24T20:12:03.478Z,81.20
2017-06-24T20:14:30.869Z,81.70
2017-06-24T20:16:58.175Z,82.00
2017-06-24T20:19:25.445Z,81.90
2017-06-24T20:21:53.121Z,81.80
2017-06-24T20:24:21.266Z,81.80
2017-06-24T20:26:48.544Z,81.90
2017-06-24T20:29:15.831Z,82.00
2017-06-24T20:31:43.699Z,82.80
2017-06-24T20:34:10.977Z,82.70
2017-06-24T20:36:38.244Z,82.30
2017-06-24T20:39:05.613Z,82.60
2017-06-24T20:41:33.848Z,82.60
2017-06-24T20:44:01.148Z,82.20
2017-06-24T20:46:28.431Z,81.80
2017-06-24T20:48:55.727Z,82.20
2017-06-24T20:51:23.355Z,82.20
2017-06-24T20:53:50.644Z,81.90
2017-06-24T20:56:18.410Z,82.00
2017-06-24T20:58:45.726Z,81.90
2017-06-24T21:01:13.519Z,82.00
2017-06-24T21:03:40.846Z,81.90
2017-06-24T21:06:11.452Z,81.80
2017-06-24T21:08:38.936Z,82.70
2017-06-24T21:11:06.394Z,82.80
2017-06-24T21:13:33.854Z,82.70
2017-06-24T21:16:01.133Z,82.60
2017-06-24T21:18:28.396Z,82.40
2017-06-24T21:20:55.703Z,82.00
2017-06-24T21:23:22.991Z,83.30
2017-06-24T21:25:50.270Z,82.90
2017-06-24T21:28:17.559Z,82.80
2017-06-24T21:30:44.850Z,82.60
2017-06-24T21:33:12.586Z,82.30
2017-06-24T21:35:40.565Z,82.10
2017-06-24T21:38:07.891Z,82.50
2017-06-24T21:40:35.153Z,82.30
2017-06-24T21:43:03.338Z,82.10
2017-06-24T21:45:30.614Z,82.00
2017-06-24T21:47:57.879Z,81.80
2017-06-24T21:50:25.152Z,82.30
2017-06-24T21:52:53.152Z,82.90
2017-06-24T21:55:20.479Z,82.40
2017-06-24T21:57:50.952Z,82.30
2017-06-24T22:00:18.442Z,82.40
2017-06-24T22:02:46.260Z,82.40
2017-06-24T22:05:13.559Z,82.40
2017-06-24T22:07:40.986Z,82.30
2017-06-24T22:10:08.260Z,82.40
2017-06-24T22:12:35.561Z,82.20
2017-06-24T22:15:42.413Z,82.20
2017-06-24T22:18:09.689Z,82.00
2017-06-24T22:20:36.961Z,81.80
2017-06-24T22:23:04.238Z,81.90
2017-06-24T22:25:31.523Z,81.90
2017-06-24T22:27:58.804Z,82.10
2017-06-24T22:30:26.072Z,82.10
2017-06-24T22:32:53.353Z,82.20
2017-06-24T22:35:20.643Z,82.00
2017-06-24T22:37:47.916Z,82.00
2017-06-24T22:40:15.585Z,81.60
2017-06-24T22:42:43.006Z,81.50
2017-06-24T22:47:49.550Z,82.20
2017-06-24T22:50:17.087Z,82.30
2017-06-24T22:52:44.878Z,82.70
2017-06-24T22:55:12.149Z,82.60
2017-06-24T22:57:39.416Z,82.60
2017-06-24T23:00:07.130Z,82.50
2017-06-24T23:02:34.396Z,82.30
2017-06-24T23:05:01.675Z,82.40
2017-06-24T23:07:28.972Z,82.40
2017-06-24T23:09:56.259Z,82.50
2017-06-24T23:12:23.524Z,82.50
2017-06-24T23:14:50.815Z,82.50
2017-06-24T23:17:18.133Z,82.60
2017-06-24T23:19:45.419Z,82.50
2017-06-24T23:22:12.688Z,82.00
2017-06-24T23:24:40.361Z,81.50
2017-06-24T23:27:07.633Z,81.50
2017-06-24T23:29:34.921Z,82.50
2017-06-24T23:32:02.193Z,82.40
2017-06-24T23:34:29.477Z,82.10
2017-06-24T23:36:56.758Z,82.10
2017-06-24T23:39:24.024Z,82.20
2017-06-24T23:41:51.474Z,81.90
2017-06-24T23:44:18.773Z,81.60
2017-06-24T23:46:46.059Z,81.40
2017-06-24T23:49:13.342Z,82.10
2017-06-24T23:51:40.601Z,82.70
2017-06-24T23:54:07.895Z,82.60
2017-06-24T23:56:35.159Z,82.40
2017-06-24T23:59:02.447Z,82.30
